This is the latest recevied weather packets stored in our database for station/object JE7UPL-13. If no packets are shown the sender has not sent any weather packets the latest 10 day(s).
| Time | Temp. | Humidity | Pressure | Rain* | Wind** | Luminosity | Snow |
|---|---|---|---|---|---|---|---|
| 1777605305 | 13.89° C | 71% | 1001 hPa | 0 mm | - | - | - |
| 1777604406 | 13.89° C | 71% | 1001.4 hPa | 0 mm | - | - | - |
| 1777603505 | 13.89° C | 67% | 1001.9 hPa | 0 mm | - | - | - |
| 1777602606 | 14.44° C | 61% | 1002.2 hPa | 0 mm | - | - | - |
| 1777581006 | 7.22° C | 84% | 1010.8 hPa | 0 mm | - | - | - |
| 1777579206 | 5.56° C | 83% | 1011.2 hPa | 0 mm | - | - | - |
| 1777570206 | 5.56° C | 77% | 1012.1 hPa | 0 mm | - | - | - |
| 1777564806 | 6.67° C | 71% | 1013.4 hPa | 0 mm | - | - | - |
| 1777563006 | 6.67° C | 71% | 1013.8 hPa | 0 mm | - | - | - |
| 1777562106 | 6.67° C | 70% | 1014.1 hPa | 0 mm | - | - | - |
| 1777561211 | 7.22° C | 69% | 1014 hPa | 0 mm | - | - | - |
| 1777556705 | 7.78° C | 65% | 1015 hPa | 0 mm | - | - | - |
| 1777554905 | 8.33° C | 61% | 1015.3 hPa | 0 mm | - | - | - |
| 1777554006 | 8.89° C | 61% | 1015.6 hPa | 0 mm | - | - | - |
| 1777553105 | 8.89° C | 60% | 1015.7 hPa | 0 mm | - | - | - |
| 1777551306 | 10° C | 55% | 1015.9 hPa | 0 mm | - | - | - |
| 1777545005 | 12.22° C | 52% | 1016.5 hPa | 0 mm | - | - | - |
| 1777544105 | 12.78° C | 51% | 1016.3 hPa | 0 mm | - | - | - |
| 1777541405 | 13.89° C | 49% | 1015.9 hPa | 0 mm | - | - | - |
| 1777540505 | 14.44° C | 41% | 1015.8 hPa | 0 mm | - | - | - |
| 1777539606 | 15° C | 39% | 1015.9 hPa | 0 mm | - | - | - |
| 1777537806 | 15.56° C | 41% | 1015.5 hPa | 0 mm | - | - | - |
| 1777536905 | 16.11° C | 32% | 1015.3 hPa | 0 mm | - | - | - |
| 1777535105 | 16.67° C | 29% | 1015 hPa | 0 mm | - | - | - |
| 1777534206 | 17.22° C | 28% | 1014.9 hPa | 0 mm | - | - | - |
* Rain latest hour (hover to see other rain measurements)
** Current wind speed in m/s (hover to see current wind gust speed)